ADDS METAR Data INFO
IDs: Format: Raw Decoded Include TAF

Data at: 0112 UTC 24 Jun 2018

KBDH 240055Z AUTO 00000KT 4SM CLR 25/14 A2976 RMK AO2
KBDH 240035Z AUTO 16005KT 4SM CLR 25/14 A2976 RMK AO2
KBDH 240015Z AUTO 18004KT 7SM CLR 26/14 A2976 RMK AO2
KBDH 232355Z AUTO 20006KT 5SM CLR 26/14 A2975 RMK AO2
KBDH 232335Z AUTO 20005KT 7SM CLR 26/15 A2975 RMK AO2
KBDH 232315Z AUTO 20003KT 10SM CLR 26/14 A2976 RMK AO2
KBDH 232255Z AUTO 17007KT 7SM SCT050 26/14 A2976 RMK AO2
KBDH 232235Z AUTO 21005KT 7SM SCT050 26/16 A2976 RMK AO2
KBDH 232215Z AUTO 17003KT 7SM CLR 26/15 A2976 RMK AO2
KBDH 232155Z AUTO 16005KT 7SM CLR 26/16 A2975 RMK AO2
KBDH 232135Z AUTO 15007G14KT 10SM SCT050 26/16 A2975 RMK AO2
KBDH 232115Z AUTO 16005KT 10SM SCT050 26/16 A2976 RMK AO2
KBDH 232055Z AUTO 14005KT 10SM SCT050 27/16 A2976 RMK AO2
KBDH 232035Z AUTO 16004KT 10SM CLR 26/16 A2976 RMK AO2
KBDH 232015Z AUTO 18003KT 10SM CLR 26/16 A2977 RMK AO2
KBDH 231955Z AUTO 19003KT 10SM CLR 26/16 A2978 RMK AO2
KBDH 231935Z AUTO 16003KT 10SM SCT045 25/16 A2978 RMK AO2
KBDH 231915Z AUTO 16004KT 10SM CLR 26/16 A2978 RMK AO2
KBDH 231855Z AUTO 20003KT 10SM CLR 25/16 A2979 RMK AO2
KBDH 231835Z AUTO 15003KT 10SM CLR 25/16 A2979 RMK AO2
KBDH 231815Z AUTO 22006KT 10SM SCT043 25/16 A2979 RMK AO2
KBDH 231755Z AUTO 25003KT 10SM CLR 25/16 A2980 RMK AO2
KBDH 231735Z AUTO 20005KT 10SM SCT041 24/16 A2980 RMK AO2
KBDH 231715Z AUTO 24008KT 10SM SCT041 24/15 A2980 RMK AO2
KBDH 231655Z AUTO 00000KT 10SM CLR 24/16 A2980 RMK AO2
KBDH 231635Z AUTO 24004KT 10SM CLR 24/15 A2980 RMK AO2
KBDH 231615Z AUTO 16004KT 10SM CLR 24/16 A2980 RMK AO2
KBDH 231555Z AUTO 17003KT 10SM CLR 23/16 A2980 RMK AO2
KBDH 231535Z AUTO 00000KT 10SM CLR 23/16 A2980 RMK AO2
KBDH 231515Z AUTO 00000KT 10SM CLR 23/16 A2980 RMK AO2
KBDH 231455Z AUTO 00000KT 10SM CLR 23/16 A2980 RMK AO2
KBDH 231435Z AUTO 22004KT 10SM CLR 22/17 A2981 RMK AO2
KBDH 231415Z AUTO 22003KT 10SM CLR 22/16 A2981 RMK AO2
KBDH 231355Z AUTO 00000KT 10SM CLR 21/16 A2981 RMK AO2
KBDH 231335Z AUTO 00000KT 10SM CLR 21/17 A2980 RMK AO2
KBDH 231315Z AUTO 00000KT 10SM CLR 20/17 A2980 RMK AO2
KBDH 231255Z AUTO 00000KT 10SM CLR 19/16 A2980 RMK AO2
KBDH 231235Z AUTO 00000KT 10SM CLR 18/16 A2980 RMK AO2
KBDH 231215Z AUTO 00000KT 10SM CLR 18/16 A2980 RMK AO2
KBDH 231155Z AUTO 16003KT 7SM CLR 17/16 A2980 RMK AO2
KBDH 231135Z AUTO 00000KT 7SM CLR 17/16 A2980 RMK AO2
KBDH 231115Z AUTO 14003KT 7SM CLR 17/16 A2980 RMK AO2
KBDH 231055Z AUTO 00000KT 10SM CLR 16/15 A2980 RMK AO2
KBDH 231035Z AUTO 12003KT 10SM CLR 16/14 A2979 RMK AO2
KBDH 231015Z AUTO 00000KT 10SM CLR 16/15 A2980 RMK AO2
KBDH 230955Z AUTO 12003KT 10SM CLR 16/14 A2980 RMK AO2
KBDH 230935Z AUTO 00000KT 10SM CLR 16/14 A2979 RMK AO2
KBDH 230915Z AUTO 00000KT 10SM CLR 17/16 A2980 RMK AO2
KBDH 230855Z AUTO 00000KT 10SM CLR 16/15 A2980 RMK AO2
KBDH 230835Z AUTO 00000KT 10SM CLR 17/16 A2981 RMK AO2
KBDH 230815Z AUTO 00000KT 10SM SCT080 17/16 A2982 RMK AO2
KBDH 230755Z AUTO 00000KT 10SM BKN080 18/16 A2982 RMK AO2
KBDH 230735Z AUTO 00000KT 10SM OVC080 18/16 A2983 RMK AO2
KBDH 230715Z AUTO 00000KT 10SM SCT070 BKN080 18/16 A2983 RMK AO2
KBDH 230655Z AUTO 00000KT 10SM SCT080 18/16 A2983 RMK AO2
KBDH 230635Z AUTO 00000KT 10SM BKN070 18/16 A2983 RMK AO2
KBDH 230615Z AUTO 00000KT 10SM BKN070 18/16 A2984 RMK AO2
KBDH 230555Z AUTO 00000KT 10SM BKN070 18/17 A2983 RMK AO2
KBDH 230535Z AUTO 00000KT 10SM BKN070 18/17 A2984 RMK AO2
KBDH 230515Z AUTO 00000KT 10SM SCT070 18/17 A2983 RMK AO2
KBDH 230455Z AUTO 00000KT 10SM CLR 18/16 A2983 RMK AO2
KBDH 230435Z AUTO 13004KT 10SM CLR 17/16 A2982 RMK AO2
KBDH 230415Z AUTO 00000KT 10SM CLR 18/17 A2982 RMK AO2
KBDH 230355Z AUTO 00000KT 10SM CLR 18/16 A2982 RMK AO2
KBDH 230335Z AUTO 00000KT 10SM CLR 19/17 A2983 RMK AO2
KBDH 230315Z AUTO 00000KT 10SM CLR 20/17 A2982 RMK AO2
KBDH 230255Z AUTO 00000KT 10SM SCT070 19/17 A2982 RMK AO2
KBDH 230235Z AUTO 00000KT 10SM SCT070 21/17 A2982 RMK AO2
KBDH 230215Z AUTO 00000KT 10SM SCT050 22/16 A2982 RMK AO2
KBDH 230155Z AUTO 00000KT 10SM SCT050 22/17 A2981 RMK AO2
KBDH 230135Z AUTO 00000KT 7SM CLR 23/17 A2981 RMK AO2
KBDH 230115Z AUTO 00000KT 10SM SCT048 23/17 A2981 RMK AO2
KBDH 230055Z AUTO 00000KT 7SM SCT048 23/17 A2981 RMK AO2
KBDH 230035Z AUTO 16003KT 10SM CLR 24/16 A2981 RMK AO2
KBDH 230015Z AUTO 14003KT 7SM CLR 24/17 A2981 RMK AO2
KBDH 222355Z AUTO 13004KT 10SM CLR 24/17 A2982 RMK AO2
KBDH 222335Z AUTO 14004KT 10SM SCT046 24/16 A2983 RMK AO2
KBDH 222315Z AUTO 00000KT 10SM SCT048 24/17 A2983 RMK AO2
KBDH 222255Z AUTO 00000KT 10SM SCT050 24/16 A2984 RMK AO2
KBDH 222235Z AUTO 13005KT 10SM CLR 25/16 A2985 RMK AO2
KBDH 222215Z AUTO 00000KT 10SM CLR 25/15 A2986 RMK AO2
KBDH 222155Z AUTO 08003KT 10SM CLR 25/16 A2986 RMK AO2
KBDH 222135Z AUTO 11003KT 10SM CLR 25/16 A2986 RMK AO2
KBDH 222115Z AUTO 00000KT 10SM CLR 26/16 A2987 RMK AO2
KBDH 222055Z AUTO 12004KT 10SM CLR 26/16 A2987 RMK AO2
KBDH 222035Z AUTO 00000KT 10SM CLR 26/16 A2988 RMK AO2
KBDH 222015Z AUTO 13005KT 10SM CLR 25/16 A2989 RMK AO2
KBDH 221955Z AUTO 11004KT 10SM CLR 25/17 A2989 RMK AO2
KBDH 221935Z AUTO 15005KT 10SM SCT040 24/16 A2990 RMK AO2
KBDH 221915Z AUTO 13003KT 10SM SCT040 24/17 A2990 RMK AO2
KBDH 221855Z AUTO 13005KT 10SM CLR 24/16 A2991 RMK AO2
KBDH 221835Z AUTO 12003KT 10SM CLR 24/16 A2991 RMK AO2
KBDH 221815Z AUTO 12005KT 10SM CLR 24/16 A2991 RMK AO2
KBDH 221755Z AUTO 13004KT 10SM CLR 24/17 A2991 RMK AO2
KBDH 221735Z AUTO 13006KT 10SM CLR 24/17 A2991 RMK AO2
KBDH 221715Z AUTO 00000KT 10SM CLR 23/16 A2991 RMK AO2
KBDH 221655Z AUTO 14004KT 10SM CLR 24/16 A2992 RMK AO2
KBDH 221635Z AUTO 00000KT 10SM CLR 23/16 A2992 RMK AO2
KBDH 221615Z AUTO 00000KT 10SM CLR 23/16 A2992 RMK AO2
KBDH 221555Z AUTO 11004KT 10SM CLR 23/17 A2992 RMK AO2
KBDH 221535Z AUTO 11005KT 10SM CLR 23/17 A2992 RMK AO2
KBDH 221515Z AUTO 13003KT 10SM CLR 22/17 A2993 RMK AO2
KBDH 221455Z AUTO 08005KT 10SM CLR 22/17 A2993 RMK AO2
KBDH 221435Z AUTO 09004KT 10SM CLR 21/17 A2993 RMK AO2
KBDH 221415Z AUTO 09004KT 10SM CLR 21/17 A2994 RMK AO2
KBDH 221355Z AUTO 07003KT 10SM CLR 20/16 A2994 RMK AO2
KBDH 221335Z AUTO 05003KT 10SM CLR 19/16 A2994 RMK AO2
KBDH 221315Z AUTO 07003KT 10SM CLR 18/16 A2994 RMK AO2